Time;durP1;ratioP1;P1;durP2;ratioP2;P2;SDS_P1;SDS_P2;PMS_P1;PMS_P2;Temp;Humidity;BMP_temperature;BMP_pressure;BME280_temperature;BME280_humidity;BME280_pressure;Samples;Min_cycle;Max_cycle;Signal;HPM_P1;HPM_P2
2022/09/09 00:00:12;;;;;;;2.15;0.70;;;;;;;15.65;63.49;96369.16;4963305;28;20055;-80
2022/09/09 00:02:45;;;;;;;8.60;0.90;;;;;;;15.66;63.51;96378.69;4964008;28;20047;-81
2022/09/09 00:05:26;;;;;;;4.00;0.85;;;;;;;15.68;63.74;96386.31;4963619;28;20101;-80
2022/09/09 00:08:00;;;;;;;1.35;0.73;;;;;;;15.70;63.36;96374.59;4964375;28;20073;-82
2022/09/09 00:10:33;;;;;;;3.97;0.80;;;;;;;15.72;63.15;96379.63;4963648;28;20058;-85
2022/09/09 00:13:20;;;;;;;2.08;0.80;;;;;;;15.70;63.33;96369.34;4964580;28;20146;-84
2022/09/09 00:15:57;;;;;;;3.38;0.88;;;;;;;15.68;63.39;96367.91;4965340;28;20055;-80
2022/09/09 00:18:32;;;;;;;1.30;0.70;;;;;;;15.64;63.25;96368.38;4965481;28;20062;-82
2022/09/09 00:21:07;;;;;;;2.40;0.60;;;;;;;15.63;63.41;96358.88;4964142;28;20063;-81
2022/09/09 00:23:40;;;;;;;1.50;0.75;;;;;;;15.64;63.43;96355.22;4963901;28;20433;-81
2022/09/09 00:26:16;;;;;;;1.48;0.80;;;;;;;15.65;63.28;96350.75;4964455;28;20528;-80
2022/09/09 00:28:51;;;;;;;6.47;0.80;;;;;;;15.64;63.28;96360.47;4963202;28;20058;-84
2022/09/09 00:31:23;;;;;;;2.42;0.90;;;;;;;15.66;63.13;96358.44;4962872;28;20424;-80
2022/09/09 00:33:53;;;;;;;2.22;0.60;;;;;;;15.70;63.04;96365.88;4963942;29;20478;-80
2022/09/09 00:36:25;;;;;;;1.52;0.60;;;;;;;15.73;62.88;96368.13;4963783;28;20053;-82
2022/09/09 00:38:57;;;;;;;2.08;0.80;;;;;;;15.73;62.60;96368.13;4970476;28;20053;-84
2022/09/09 00:41:40;;;;;;;1.55;0.65;;;;;;;15.70;62.67;96369.34;4969817;28;20390;-82
2022/09/09 00:44:22;;;;;;;2.20;0.80;;;;;;;15.67;63.19;96369.75;4969492;28;20055;-87
2022/09/09 00:47:05;;;;;;;1.05;0.82;;;;;;;15.63;62.88;96356.25;4968372;28;20490;-83
2022/09/09 00:49:48;;;;;;;7.90;1.48;;;;;;;15.61;62.79;96357.47;4967553;28;20057;-81
2022/09/09 00:52:27;;;;;;;2.92;0.70;;;;;;;15.60;62.93;96364.56;4966719;28;20111;-84
2022/09/09 00:55:05;;;;;;;1.60;0.60;;;;;;;15.61;62.87;96363.56;4968488;28;20078;-87
2022/09/09 00:57:34;;;;;;;2.38;0.60;;;;;;;15.63;62.83;96366.78;4967486;28;20047;-83
2022/09/09 01:00:22;;;;;;;4.03;0.95;;;;;;;15.63;62.49;96374.66;4968078;28;20051;-84
2022/09/09 01:03:12;;;;;;;1.42;0.80;;;;;;;15.62;62.73;96367.78;4968310;28;20416;-80
2022/09/09 01:05:46;;;;;;;1.38;0.65;;;;;;;15.63;62.62;96369.41;4970768;28;20055;-85
2022/09/09 01:08:30;;;;;;;2.80;1.00;;;;;;;15.62;62.81;96370.41;4972960;28;20051;-83
2022/09/09 01:11:00;;;;;;;5.68;0.80;;;;;;;15.61;62.28;96363.56;4971331;28;20051;-85
2022/09/09 01:13:30;;;;;;;3.90;0.85;;;;;;;15.60;62.54;96364.56;4972841;28;20047;-82
2022/09/09 01:16:00;;;;;;;1.55;0.95;;;;;;;15.59;62.54;96365.59;4970891;28;20231;-85
2022/09/09 01:18:34;;;;;;;2.47;0.70;;;;;;;15.58;62.47;96363.19;4970098;28;20059;-82
2022/09/09 01:21:09;;;;;;;3.50;0.75;;;;;;;15.58;62.59;96365.81;4971347;28;20134;-81
2022/09/09 01:23:55;;;;;;;5.97;1.23;;;;;;;15.58;62.37;96377.13;4971853;28;20051;-81
2022/09/09 01:29:05;;;;;;;3.25;0.70;;;;;;;15.58;62.28;96361.34;5190475;23;20040;-81
2022/09/09 01:34:40;;;;;;;2.15;0.50;;;;;;;15.62;61.67;96362.53;4944631;29;20036;-81
2022/09/09 01:37:23;;;;;;;5.63;1.00;;;;;;;15.65;61.61;96362.09;4924527;29;20519;-81
2022/09/09 01:40:18;;;;;;;2.50;0.55;;;;;;;15.64;61.58;96360.47;4922926;29;20080;-80
2022/09/09 01:43:07;;;;;;;4.30;0.77;;;;;;;15.63;61.71;96356.25;4924387;29;20104;-81
2022/09/09 01:45:59;;;;;;;3.95;0.80;;;;;;;15.64;61.73;96357.06;4924438;29;20079;-81
2022/09/09 01:48:32;;;;;;;2.00;0.75;;;;;;;15.60;61.54;96359.31;4920935;29;20044;-81
2022/09/09 01:51:17;;;;;;;3.23;0.83;;;;;;;15.57;61.57;96354.50;4923232;29;20041;-81
2022/09/09 01:54:04;;;;;;;3.38;0.65;;;;;;;15.56;61.51;96352.88;4925107;29;20330;-81
2022/09/09 01:57:01;;;;;;;1.70;0.60;;;;;;;15.53;61.70;96350.69;4924583;29;20049;-81
2022/09/09 01:59:56;;;;;;;3.40;0.98;;;;;;;15.52;61.81;96354.34;4925330;29;20526;-81
2022/09/09 02:02:52;;;;;;;2.28;0.70;;;;;;;15.50;61.79;96347.69;4924319;29;20049;-81
2022/09/09 02:05:40;;;;;;;2.22;0.60;;;;;;;15.48;62.08;96355.00;4921782;29;20064;-81
2022/09/09 02:08:23;;;;;;;1.08;0.65;;;;;;;15.48;61.71;96355.81;4923072;29;20046;-81
2022/09/09 02:11:11;;;;;;;4.65;0.70;;;;;;;15.49;62.20;96354.78;4922798;29;20100;-82
2022/09/09 02:13:54;;;;;;;3.10;0.63;;;;;;;15.49;61.89;96356.63;4922286;29;20125;-81
2022/09/09 02:27:16;;;;;;;5.75;0.77;;;;;;;15.40;62.05;96361.34;1215522;23;20088;-78
2022/09/09 02:29:47;;;;;;;3.15;0.70;;;;;;;15.42;61.85;96354.84;4942746;29;20104;-78
2022/09/09 02:32:18;;;;;;;5.88;1.00;;;;;;;15.44;61.60;96352.03;4940813;29;20062;-78
2022/09/09 02:34:48;;;;;;;2.47;0.73;;;;;;;15.44;61.41;96352.03;4942961;29;20060;-78
2022/09/09 02:39:41;;;;;;;3.03;0.80;;;;;;;15.41;61.52;96341.94;4986820;23;20123;-85
2022/09/09 02:42:09;;;;;;;3.10;0.52;;;;;;;15.38;61.58;96350.25;4969680;29;20062;-86
2022/09/09 02:44:38;;;;;;;4.82;0.90;;;;;;;15.36;61.83;96347.03;4968783;29;20067;-87
2022/09/09 02:47:17;;;;;;;1.85;0.60;;;;;;;15.36;61.59;96336.53;4968632;29;20047;-88
2022/09/09 02:49:59;;;;;;;3.33;0.82;;;;;;;15.34;61.69;96343.81;4948830;29;20051;-82
2022/09/09 02:52:31;;;;;;;2.38;0.90;;;;;;;15.33;61.72;96344.84;4947616;29;20055;-81
2022/09/09 02:55:06;;;;;;;1.27;0.63;;;;;;;15.30;61.66;96338.19;4947916;29;20051;-83
2022/09/09 02:57:35;;;;;;;4.35;0.80;;;;;;;15.27;61.90;96343.09;4947433;29;20052;-84
2022/09/09 03:00:05;;;;;;;2.33;0.47;;;;;;;15.25;62.14;96351.97;4946820;29;20051;-86
2022/09/09 03:02:33;;;;;;;3.70;0.85;;;;;;;15.23;62.45;96347.97;4945530;29;20504;-80
2022/09/09 03:05:01;;;;;;;3.92;0.65;;;;;;;15.18;62.36;96346.00;4947475;29;20438;-82
2022/09/09 03:07:29;;;;;;;3.42;0.85;;;;;;;15.14;62.75;96352.69;4944815;29;20593;-81
2022/09/09 03:09:56;;;;;;;2.40;0.80;;;;;;;15.09;62.86;96347.31;4951634;29;20056;-86
2022/09/09 03:12:24;;;;;;;2.55;1.05;;;;;;;15.05;62.91;96346.13;4951437;29;20052;-81
2022/09/09 03:14:51;;;;;;;5.38;1.27;;;;;;;15.00;63.39;96348.59;4950420;29;20047;-85
2022/09/09 03:17:20;;;;;;;1.75;0.80;;;;;;;14.97;63.35;96349.00;4950006;29;20058;-82
2022/09/09 03:19:49;;;;;;;4.88;0.93;;;;;;;14.93;63.42;96348.63;4951676;29;20079;-87
2022/09/09 03:22:16;;;;;;;2.42;0.82;;;;;;;14.93;63.44;96353.09;4950805;29;20063;-88
2022/09/09 03:24:46;;;;;;;1.45;0.80;;;;;;;14.91;63.70;96347.25;4951594;29;20051;-85
2022/09/09 03:27:15;;;;;;;2.38;1.00;;;;;;;14.90;63.66;96346.44;4951111;29;20426;-85
2022/09/09 03:29:42;;;;;;;2.65;0.80;;;;;;;14.89;63.62;96341.41;4951289;29;20058;-84
2022/09/09 03:32:10;;;;;;;1.83;0.77;;;;;;;14.88;63.80;96351.09;4950527;29;20062;-84
2022/09/09 03:34:40;;;;;;;5.95;0.95;;;;;;;14.90;63.66;96353.53;4949998;29;20054;-86
2022/09/09 03:37:07;;;;;;;2.42;0.80;;;;;;;14.89;63.55;96346.66;4950537;29;20047;-83
2022/09/09 03:39:35;;;;;;;4.68;1.10;;;;;;;14.91;63.55;96339.38;4950671;29;20564;-86
2022/09/09 03:42:03;;;;;;;3.88;1.17;;;;;;;14.93;63.83;96347.84;4949194;29;20052;-86
2022/09/09 03:44:31;;;;;;;3.25;0.85;;;;;;;14.95;63.73;96340.53;4949420;29;20074;-82
2022/09/09 03:47:00;;;;;;;5.90;0.90;;;;;;;14.95;63.57;96343.19;4949866;29;20048;-82
2022/09/09 03:49:29;;;;;;;3.40;1.02;;;;;;;14.94;63.62;96333.69;4949010;29;20079;-80
2022/09/09 03:51:58;;;;;;;5.55;1.10;;;;;;;14.91;63.65;96339.38;4947883;29;20047;-85
2022/09/09 03:54:27;;;;;;;2.45;0.85;;;;;;;14.88;63.77;96345.84;4948654;29;20056;-83
2022/09/09 03:56:54;;;;;;;3.13;0.93;;;;;;;14.89;63.75;96341.41;4948476;29;20052;-84
2022/09/09 03:59:22;;;;;;;4.88;0.60;;;;;;;14.90;63.72;96354.31;4947835;29;20111;-84
2022/09/09 04:01:50;;;;;;;3.35;0.80;;;;;;;14.93;63.75;96363.59;4947941;29;20095;-83
2022/09/09 04:04:19;;;;;;;5.07;0.80;;;;;;;14.99;64.25;96368.78;4947887;29;20055;-84
2022/09/09 04:06:48;;;;;;;1.42;0.70;;;;;;;15.03;63.57;96361.28;4949621;29;20062;-85
2022/09/09 04:09:16;;;;;;;2.65;0.80;;;;;;;15.03;63.34;96366.56;4949143;29;20134;-83
2022/09/09 04:11:45;;;;;;;5.32;0.68;;;;;;;15.03;63.81;96366.56;4948686;29;20056;-82
2022/09/09 04:14:13;;;;;;;1.60;0.63;;;;;;;15.01;63.54;96366.75;4948248;29;20067;-86
2022/09/09 04:16:42;;;;;;;3.55;1.15;;;;;;;15.00;63.68;96365.16;4948491;29;20055;-83
2022/09/09 04:19:12;;;;;;;1.10;0.75;;;;;;;15.01;63.58;96363.34;4947566;29;20060;-83
2022/09/09 04:21:40;;;;;;;0.80;0.80;;;;;;;14.99;63.49;96363.53;4946978;29;20115;-83
2022/09/09 04:24:08;;;;;;;1.42;0.60;;;;;;;15.02;63.75;96372.81;4947067;29;20052;-82
2022/09/09 04:26:38;;;;;;;2.38;1.10;;;;;;;15.04;63.74;96382.09;4947744;29;20047;-84
2022/09/09 04:29:07;;;;;;;5.15;1.30;;;;;;;15.10;63.74;96380.41;4946520;29;20048;-82
2022/09/09 04:31:35;;;;;;;3.33;0.90;;;;;;;15.14;63.31;96376.34;4947821;29;20082;-87
2022/09/09 04:34:05;;;;;;;3.20;1.00;;;;;;;15.18;63.47;96384.63;4949731;29;20057;-88
2022/09/09 04:36:33;;;;;;;2.38;0.80;;;;;;;15.19;63.52;96383.59;4949826;29;20075;-83
2022/09/09 04:39:01;;;;;;;3.50;1.08;;;;;;;15.20;63.33;96382.56;4948381;29;20063;-83
2022/09/09 04:41:31;;;;;;;3.00;1.00;;;;;;;15.21;63.40;96381.53;4948211;29;20055;-84
2022/09/09 04:44:00;;;;;;;4.30;1.05;;;;;;;15.24;63.92;96387.19;4948388;29;20052;-82
2022/09/09 04:46:28;;;;;;;1.73;0.77;;;;;;;15.27;63.57;96385.94;4947470;29;20528;-81
2022/09/09 04:48:55;;;;;;;1.13;0.70;;;;;;;15.28;63.60;96387.53;4946437;29;20079;-79
2022/09/09 04:51:24;;;;;;;3.13;1.27;;;;;;;15.31;63.55;96388.94;4946399;29;20163;-79
2022/09/09 04:53:53;;;;;;;5.25;1.30;;;;;;;15.32;63.46;96387.91;4945612;29;20051;-84
2022/09/09 04:56:21;;;;;;;2.78;1.00;;;;;;;15.31;63.49;96387.13;4945358;29;20521;-81
2022/09/09 04:58:49;;;;;;;4.35;1.95;;;;;;;15.32;63.54;96385.28;4945251;29;20528;-80
2022/09/09 05:01:20;;;;;;;8.05;1.83;;;;;;;15.33;63.53;96386.91;4943928;29;20256;-84
2022/09/09 05:03:48;;;;;;;3.80;1.40;;;;;;;15.31;63.61;96384.50;4944550;29;20082;-81
2022/09/09 05:06:18;;;;;;;4.65;1.08;;;;;;;15.32;63.87;96377.41;4944980;29;20054;-84
2022/09/09 05:08:46;;;;;;;6.88;1.15;;;;;;;15.33;63.74;96384.28;4945719;29;20138;-85
2022/09/09 05:11:16;;;;;;;1.77;1.10;;;;;;;15.34;63.81;96386.66;4944435;29;20065;-80
2022/09/09 05:13:45;;;;;;;4.40;1.65;;;;;;;15.33;63.88;96389.53;4945200;29;20143;-80
2022/09/09 05:16:12;;;;;;;1.95;1.63;;;;;;;15.32;63.87;96388.72;4944205;29;20425;-80
2022/09/09 05:18:43;;;;;;;3.83;1.63;;;;;;;15.30;64.13;96389.94;4944763;29;20056;-82
2022/09/09 05:21:12;;;;;;;3.97;1.67;;;;;;;15.27;64.13;96385.94;4942902;29;20051;-85
2022/09/09 05:23:40;;;;;;;5.65;1.80;;;;;;;15.27;64.65;96387.78;4944044;29;20107;-81
2022/09/09 05:26:10;;;;;;;6.68;1.95;;;;;;;15.27;64.80;96385.13;4944160;29;20438;-80
2022/09/09 05:28:43;;;;;;;8.43;2.28;;;;;;;15.30;65.08;96389.94;4944167;29;20055;-83
2022/09/09 05:31:12;;;;;;;6.75;2.30;;;;;;;15.32;65.16;96386.09;4950324;29;20497;-82
2022/09/09 05:33:45;;;;;;;6.70;2.00;;;;;;;15.33;65.06;96387.69;4943922;29;20062;-85
2022/09/09 05:36:15;;;;;;;4.57;1.50;;;;;;;15.34;65.29;96386.66;4946802;29;20086;-83
2022/09/09 05:38:43;;;;;;;4.32;1.67;;;;;;;15.37;65.20;96385.44;4947291;29;20060;-85
2022/09/09 05:41:12;;;;;;;6.07;2.10;;;;;;;15.40;65.32;96395.53;4946070;29;20054;-83
2022/09/09 05:43:40;;;;;;;4.22;1.50;;;;;;;15.44;65.21;96396.69;4946836;29;20044;-81
2022/09/09 05:46:10;;;;;;;5.13;2.13;;;;;;;15.48;65.22;96397.88;4948048;29;20054;-82
2022/09/09 05:48:39;;;;;;;2.70;1.40;;;;;;;15.52;65.26;96403.50;4946460;29;20085;-83
2022/09/09 05:51:12;;;;;;;6.55;1.58;;;;;;;15.54;65.50;96406.72;4947142;29;20131;-84
2022/09/09 05:53:40;;;;;;;4.75;1.85;;;;;;;15.56;65.36;96405.47;4950073;29;20044;-85
2022/09/09 05:56:10;;;;;;;5.53;2.10;;;;;;;15.60;65.36;96403.22;4951397;29;20052;-85
2022/09/09 05:58:39;;;;;;;3.65;1.60;;;;;;;15.65;65.08;96401.53;4951724;29;20577;-84
2022/09/09 06:01:09;;;;;;;6.15;1.52;;;;;;;15.70;65.37;96400.06;4951030;29;20044;-83
2022/09/09 06:03:39;;;;;;;4.72;1.75;;;;;;;15.73;65.59;96394.41;4952679;29;20506;-85
2022/09/09 06:06:10;;;;;;;6.47;1.88;;;;;;;15.74;65.60;96396.84;4953229;29;20134;-84
2022/09/09 06:08:40;;;;;;;6.35;1.48;;;;;;;15.80;65.66;96395.13;4953292;29;20056;-83
2022/09/09 06:11:10;;;;;;;4.75;1.58;;;;;;;15.86;65.32;96394.25;4951463;29;20051;-84
2022/09/09 06:13:39;;;;;;;1.88;1.40;;;;;;;15.93;65.60;96386.28;4951178;29;20054;-87
2022/09/09 06:16:11;;;;;;;4.93;1.70;;;;;;;15.99;65.70;96391.47;4952178;29;20047;-84
2022/09/09 06:18:39;;;;;;;2.22;1.08;;;;;;;16.05;65.51;96382.69;4952277;29;20605;-84
2022/09/09 06:21:12;;;;;;;2.00;0.80;;;;;;;16.11;65.42;96386.25;4951539;29;20111;-85
2022/09/09 06:23:40;;;;;;;2.75;0.85;;;;;;;16.20;65.36;96390.22;4952511;29;20044;-86
2022/09/09 06:26:11;;;;;;;2.25;0.50;;;;;;;16.30;65.27;96388.88;4952578;29;20047;-84
2022/09/09 06:28:39;;;;;;;2.00;0.70;;;;;;;16.38;64.67;96378.84;4951984;29;20059;-87
2022/09/09 06:31:09;;;;;;;1.25;0.68;;;;;;;16.43;64.52;96378.97;4953454;29;20070;-81
2022/09/09 06:33:40;;;;;;;1.13;0.57;;;;;;;16.46;64.79;96373.25;4953286;29;20051;-82
2022/09/09 06:36:13;;;;;;;2.03;0.50;;;;;;;16.58;64.45;96380.38;4953093;29;20052;-85
2022/09/09 06:38:41;;;;;;;2.13;1.08;;;;;;;16.72;64.26;96379.16;4951129;29;20062;-85
2022/09/09 06:41:10;;;;;;;4.32;1.05;;;;;;;16.91;63.76;96385.19;4950157;29;20062;-83
2022/09/09 06:43:38;;;;;;;2.55;1.20;;;;;;;17.15;63.25;96393.13;4950289;29;20056;-79
2022/09/09 06:46:08;;;;;;;4.05;1.00;;;;;;;17.39;64.01;96399.19;4949381;29;20052;-82
2022/09/09 06:48:36;;;;;;;2.78;1.48;;;;;;;17.62;63.36;96398.38;4948692;29;20551;-87
2022/09/09 06:51:05;;;;;;;4.80;1.38;;;;;;;17.82;63.25;96395.38;4947148;29;20055;-84
2022/09/09 06:53:36;;;;;;;4.05;1.35;;;;;;;17.97;64.22;96397.53;4944646;29;20470;-80
2022/09/09 06:56:19;;;;;;;3.03;1.42;;;;;;;18.07;64.33;96398.53;4944636;29;20043;-82
2022/09/09 06:58:48;;;;;;;2.30;1.40;;;;;;;18.17;63.99;96408.50;4943462;29;20056;-82
2022/09/09 07:01:18;;;;;;;3.92;1.67;;;;;;;18.25;63.35;96404.69;4942410;29;20052;-84
2022/09/09 07:03:47;;;;;;;3.63;1.35;;;;;;;18.33;62.98;96412.25;4941618;28;20051;-81
2022/09/09 07:06:17;;;;;;;2.83;1.02;;;;;;;18.43;63.46;96408.97;4942481;29;20395;-81
2022/09/09 07:08:49;;;;;;;4.03;1.35;;;;;;;18.65;62.94;96403.81;4942318;29;20083;-85
2022/09/09 07:11:25;;;;;;;4.38;1.08;;;;;;;18.91;61.89;96400.63;4941106;29;20048;-80
2022/09/09 07:13:53;;;;;;;2.42;1.05;;;;;;;19.11;61.29;96397.50;4942139;29;20426;-80
2022/09/09 07:16:23;;;;;;;1.50;0.73;;;;;;;19.27;61.66;96398.53;4943770;29;20056;-80
2022/09/09 07:18:51;;;;;;;2.55;1.00;;;;;;;19.46;60.75;96398.25;4943959;29;20047;-85
2022/09/09 07:21:20;;;;;;;7.65;1.23;;;;;;;19.70;58.37;96402.34;4943005;29;20056;-82
2022/09/09 07:23:49;;;;;;;8.32;1.15;;;;;;;19.97;57.31;96396.31;4943096;29;20047;-82
2022/09/09 07:26:19;;;;;;;2.25;0.80;;;;;;;20.26;58.52;96412.00;4946782;29;20060;-84
2022/09/09 07:28:47;;;;;;;7.28;0.90;;;;;;;20.51;58.12;96409.66;4952425;29;20116;-83
2022/09/09 07:31:16;;;;;;;3.83;1.02;;;;;;;20.70;56.15;96411.97;4952610;29;20079;-83
2022/09/09 07:33:45;;;;;;;3.58;0.70;;;;;;;20.90;55.71;96401.56;4953034;29;20055;-81
2022/09/09 07:36:15;;;;;;;1.45;0.60;;;;;;;21.18;55.80;96411.03;4950998;29;20528;-82
2022/09/09 07:38:45;;;;;;;4.25;0.95;;;;;;;21.44;54.89;96405.97;4950450;29;20047;-81
2022/09/09 07:41:17;;;;;;;4.60;0.80;;;;;;;21.60;52.78;96409.50;4949521;29;20111;-87
2022/09/09 07:43:47;;;;;;;4.07;0.65;;;;;;;21.76;53.52;96424.47;4948682;29;20066;-83
2022/09/09 07:46:16;;;;;;;2.65;0.70;;;;;;;21.85;53.37;96426.63;4947155;29;20048;-84
2022/09/09 07:48:45;;;;;;;2.95;1.02;;;;;;;21.89;53.19;96422.41;4946453;29;20047;-83
2022/09/09 07:51:18;;;;;;;3.65;1.65;;;;;;;21.95;52.76;96422.19;4945141;29;20118;-82
2022/09/09 07:53:48;;;;;;;2.78;1.33;;;;;;;22.09;52.51;96421.72;4946616;29;20062;-82
2022/09/09 07:56:23;;;;;;;2.40;0.80;;;;;;;22.33;51.96;96422.09;4945297;29;20051;-81
2022/09/09 07:58:52;;;;;;;1.58;0.65;;;;;;;22.52;48.53;96417.91;4946435;29;20052;-83
2022/09/09 08:01:22;;;;;;;0.70;0.40;;;;;;;22.78;49.38;96424.06;4944949;29;20060;-86
2022/09/09 08:03:54;;;;;;;1.52;1.00;;;;;;;23.06;48.84;96418.53;4944778;29;20051;-82
2022/09/09 08:06:24;;;;;;;1.70;0.65;;;;;;;23.27;47.92;96409.47;4944593;29;20068;-81
2022/09/09 08:08:52;;;;;;;1.70;0.47;;;;;;;23.43;47.39;96418.22;4943796;29;20146;-84
2022/09/09 08:11:24;;;;;;;1.45;0.30;;;;;;;23.52;46.52;96421.16;4943001;29;20417;-83
2022/09/09 08:13:52;;;;;;;1.97;0.60;;;;;;;23.62;46.88;96429.13;4942222;29;20063;-82
2022/09/09 08:16:26;;;;;;;2.88;0.57;;;;;;;23.77;44.85;96433.66;4943280;29;20302;-82
2022/09/09 08:18:54;;;;;;;2.00;0.60;;;;;;;23.80;43.86;96435.78;4942341;29;20126;-82
2022/09/09 08:21:24;;;;;;;3.55;0.80;;;;;;;23.76;43.95;96438.16;4941036;29;20150;-81
2022/09/09 08:23:53;;;;;;;2.45;0.28;;;;;;;23.69;45.54;96434.97;4941805;29;20079;-82
2022/09/09 08:26:28;;;;;;;1.42;0.43;;;;;;;23.62;45.27;96445.09;4951069;29;20060;-86
2022/09/09 08:28:57;;;;;;;1.77;0.60;;;;;;;23.61;45.93;96440.81;4950579;29;20083;-83
2022/09/09 08:31:27;;;;;;;1.05;0.30;;;;;;;23.78;45.95;96441.34;4950278;29;20430;-84
2022/09/09 08:33:56;;;;;;;3.45;0.40;;;;;;;24.17;44.22;96437.25;4949457;29;20055;-85
2022/09/09 08:36:26;;;;;;;2.75;0.55;;;;;;;24.70;44.67;96431.41;4949293;29;20490;-85
2022/09/09 11:00:05;;;;;;;1.95;0.50;;;;;;;31.34;31.08;96396.69;4917300;29;20494;-86
2022/09/09 11:02:35;;;;;;;2.85;0.60;;;;;;;31.67;29.72;96404.22;4919413;29;20078;-84
2022/09/09 11:05:07;;;;;;;2.50;0.65;;;;;;;32.06;28.83;96396.94;4919682;29;20078;-86
2022/09/09 11:07:40;;;;;;;4.53;0.68;;;;;;;32.13;28.68;96399.91;4919370;29;20071;-85
2022/09/09 11:33:19;;;;;;;3.50;0.70;;;;;;;28.37;33.26;96394.69;5973540;23;20154;-85
2022/09/09 11:36:02;;;;;;;1.10;0.40;;;;;;;28.29;32.03;96393.50;4918853;29;20060;-83
2022/09/09 11:38:45;;;;;;;5.03;0.70;;;;;;;28.40;30.49;96390.63;4918346;29;20064;-84
2022/09/09 11:41:14;;;;;;;2.53;0.43;;;;;;;28.54;30.17;96394.09;4917360;29;20075;-85
2022/09/09 11:43:51;;;;;;;1.45;0.63;;;;;;;28.65;29.73;96383.94;4918077;29;20153;-83
2022/09/09 11:46:22;;;;;;;2.70;0.30;;;;;;;28.70;30.29;96381.91;4966175;23;20047;-84
2022/09/09 11:49:02;;;;;;;1.13;0.40;;;;;;;28.66;30.36;96380.16;4978746;28;20050;-84
2022/09/09 11:51:39;;;;;;;3.92;0.75;;;;;;;28.72;30.66;96381.63;4978178;28;20051;-85
2022/09/09 11:54:31;;;;;;;1.33;0.40;;;;;;;28.75;29.66;96375.63;4975260;28;20055;-84
2022/09/09 11:57:04;;;;;;;2.47;0.30;;;;;;;28.77;29.03;96370.75;4979483;28;20039;-84
2022/09/09 11:59:39;;;;;;;4.03;0.45;;;;;;;28.75;30.19;96365.72;4979308;29;20066;-84
2022/09/09 12:02:20;;;;;;;2.95;0.43;;;;;;;28.77;31.06;96373.44;4978684;28;20035;-84
2022/09/09 12:05:01;;;;;;;1.17;0.50;;;;;;;28.74;30.75;96364.09;4979275;28;20079;-84
2022/09/09 12:07:38;;;;;;;0.38;0.30;;;;;;;28.69;30.40;96368.81;4978648;28;20057;-84
2022/09/09 12:10:29;;;;;;;1.40;0.22;;;;;;;28.54;29.33;96370.75;4977040;28;20058;-84
2022/09/09 12:13:10;;;;;;;2.05;0.40;;;;;;;28.43;31.78;96366.69;4978173;28;20051;-83
2022/09/09 12:15:49;;;;;;;2.97;0.30;;;;;;;28.34;31.53;96353.19;4977971;29;20043;-84
2022/09/09 12:18:35;;;;;;;1.42;0.40;;;;;;;28.29;30.66;96355.16;4977560;28;20051;-83
2022/09/09 12:21:17;;;;;;;0.70;0.30;;;;;;;28.20;31.63;96348.94;4977298;29;20057;-84
2022/09/09 12:23:53;;;;;;;1.15;0.45;;;;;;;28.10;29.93;96348.06;4977961;28;20098;-84
2022/09/09 12:26:36;;;;;;;1.98;0.47;;;;;;;27.96;30.36;96351.84;4977395;28;20055;-84
2022/09/09 12:29:18;;;;;;;0.77;0.22;;;;;;;27.87;30.81;96351.75;4977177;28;20082;-84
2022/09/09 12:31:57;;;;;;;0.65;0.30;;;;;;;27.66;30.96;96354.00;4976239;28;20043;-84
2022/09/09 12:34:38;;;;;;;2.03;0.30;;;;;;;27.46;31.50;96345.28;4977297;28;20055;-84
2022/09/09 12:37:19;;;;;;;1.23;0.20;;;;;;;27.35;31.07;96338.50;4976770;28;20032;-84
2022/09/09 12:39:56;;;;;;;0.57;0.17;;;;;;;27.25;31.52;96350.22;4975977;28;20293;-84
2022/09/09 12:42:25;;;;;;;3.22;0.20;;;;;;;27.18;31.05;96339.06;4975894;28;20070;-84
2022/09/09 12:44:56;;;;;;;1.70;0.40;;;;;;;27.11;30.65;96350.16;4975134;28;20047;-83
2022/09/09 12:47:41;;;;;;;0.43;0.10;;;;;;;27.05;30.77;96356.69;4974756;28;20051;-83
2022/09/09 12:50:19;;;;;;;16.88;1.60;;;;;;;26.88;32.45;96393.91;4975131;29;20086;-83
2022/09/09 12:52:51;;;;;;;5.28;0.50;;;;;;;26.48;33.31;96404.09;4975164;28;20058;-83
2022/09/09 12:55:26;;;;;;;1.23;0.20;;;;;;;26.17;34.39;96398.34;4974050;29;20111;-84
2022/09/09 12:57:59;;;;;;;1.20;0.20;;;;;;;25.99;35.38;96400.69;4973367;28;20087;-83
2022/09/09 13:00:30;;;;;;;0.63;0.20;;;;;;;25.80;34.86;96411.31;4972665;28;20070;-83
2022/09/09 13:03:04;;;;;;;1.17;0.10;;;;;;;25.56;36.00;96403.28;4972705;28;20051;-83
2022/09/09 13:05:38;;;;;;;0.68;0.10;;;;;;;25.33;35.79;96399.47;4972585;28;20051;-83
2022/09/09 13:08:12;;;;;;;1.08;0.10;;;;;;;25.15;36.06;96394.81;4972629;28;20109;-83
2022/09/09 13:10:47;;;;;;;15.60;8.60;;;;;;;25.06;35.80;96399.97;4972579;28;20051;-83
2022/09/09 13:13:39;;;;;;;3.60;2.08;;;;;;;25.01;35.63;96398.09;4971292;28;20079;-83
2022/09/09 13:16:19;;;;;;;1.58;0.28;;;;;;;24.90;36.50;96401.13;4970787;28;20051;-83
2022/09/09 13:18:47;;;;;;;1.73;0.30;;;;;;;24.73;36.99;96399.66;4970851;28;20055;-83
2022/09/09 13:21:16;;;;;;;0.98;0.10;;;;;;;24.62;37.17;96396.28;4972906;29;20061;-83
2022/09/09 13:23:52;;;;;;;0.70;0.20;;;;;;;24.51;37.82;96397.41;4973090;28;20047;-83
2022/09/09 13:26:26;;;;;;;2.03;0.30;;;;;;;24.43;37.53;96397.94;4972714;28;20062;-83
2022/09/09 13:28:55;;;;;;;0.93;0.20;;;;;;;24.34;37.83;96388.94;4972076;28;20058;-83
2022/09/09 13:31:28;;;;;;;1.67;0.20;;;;;;;24.28;38.02;96388.16;4971142;28;20055;-83
2022/09/09 13:33:57;;;;;;;4.75;0.60;;;;;;;24.23;38.67;96389.00;4971132;28;20055;-83
2022/09/09 13:36:31;;;;;;;1.52;0.65;;;;;;;24.19;39.26;96379.94;4970302;28;20075;-83
2022/09/09 13:39:02;;;;;;;2.90;0.40;;;;;;;24.17;38.96;96374.09;4971022;28;20054;-81
2022/09/09 13:41:34;;;;;;;1.25;0.28;;;;;;;24.14;38.66;96371.16;4969553;28;20055;-83
2022/09/09 13:44:03;;;;;;;2.00;0.68;;;;;;;24.11;38.75;96364.53;4970154;28;20083;-83
2022/09/09 13:46:34;;;;;;;0.75;0.10;;;;;;;24.09;39.08;96361.31;4969695;28;20119;-83
2022/09/09 13:49:19;;;;;;;1.35;0.22;;;;;;;24.02;38.39;96363.50;4969471;28;20051;-83
2022/09/09 13:51:50;;;;;;;1.55;0.32;;;;;;;23.96;38.37;96356.59;4969043;28;20071;-83
2022/09/09 13:54:22;;;;;;;0.88;0.15;;;;;;;23.93;37.33;96359.81;4969470;28;20055;-83
2022/09/09 13:56:50;;;;;;;0.95;0.20;;;;;;;23.91;36.98;96348.63;4968537;28;20051;-83
2022/09/09 13:59:21;;;;;;;0.85;0.57;;;;;;;23.84;37.42;96346.25;4967128;28;20051;-83
2022/09/09 14:01:52;;;;;;;2.20;0.38;;;;;;;23.76;38.21;96350.28;4967125;28;20047;-83
2022/09/09 14:04:22;;;;;;;4.43;2.60;;;;;;;23.72;37.97;96340.41;4967148;28;20138;-83
2022/09/09 14:06:51;;;;;;;5.65;2.88;;;;;;;23.66;37.78;96334.31;4966498;28;20085;-83
2022/09/09 14:09:20;;;;;;;3.85;0.70;;;;;;;23.63;38.51;96340.19;4966926;28;20122;-83
2022/09/09 14:11:48;;;;;;;1.27;0.73;;;;;;;23.60;38.62;96340.72;4966149;28;20115;-83
2022/09/09 14:14:16;;;;;;;1.15;0.30;;;;;;;23.58;38.94;96335.66;4969917;28;20121;-83
2022/09/09 14:16:44;;;;;;;0.80;0.30;;;;;;;23.56;38.59;96332.47;4969410;28;20550;-83
2022/09/09 14:19:12;;;;;;;1.33;0.30;;;;;;;23.53;38.20;96337.56;4970837;28;20063;-84
2022/09/09 14:21:40;;;;;;;23.25;15.05;;;;;;;23.48;38.28;96330.38;4971568;28;20091;-83
2022/09/09 14:24:08;;;;;;;14.88;9.07;;;;;;;23.49;39.25;96329.31;4969971;28;20505;-83
2022/09/09 14:26:38;;;;;;;2.10;1.25;;;;;;;23.51;38.82;96334.38;4968785;28;20060;-83
2022/09/09 14:29:06;;;;;;;2.38;0.60;;;;;;;23.51;39.06;96331.72;4968415;28;20077;-83
2022/09/09 14:31:34;;;;;;;3.75;0.35;;;;;;;23.47;38.48;96328.00;4967090;28;20047;-83
2022/09/09 14:34:02;;;;;;;3.05;0.40;;;;;;;23.39;39.02;96334.66;4968201;28;20071;-83
2022/09/09 14:36:30;;;;;;;1.50;0.43;;;;;;;23.30;38.68;96334.41;4967717;28;20141;-83
2022/09/09 14:38:58;;;;;;;2.60;0.57;;;;;;;23.25;39.18;96326.44;4966731;28;20052;-83
2022/09/09 14:41:26;;;;;;;1.08;0.20;;;;;;;23.20;39.68;96327.25;4966495;28;20079;-83
2022/09/09 14:43:56;;;;;;;1.63;0.40;;;;;;;23.16;39.59;96328.84;4967300;28;20058;-82
2022/09/09 14:46:24;;;;;;;0.95;0.30;;;;;;;23.15;39.78;96329.13;4967688;28;20462;-83
2022/09/09 14:48:52;;;;;;;2.20;0.30;;;;;;;23.14;39.77;96325.66;4967971;28;20070;-83
2022/09/09 14:51:22;;;;;;;1.33;0.50;;;;;;;23.12;39.85;96319.03;4966499;28;20433;-83
2022/09/09 14:53:53;;;;;;;2.10;0.25;;;;;;;23.10;40.61;96319.28;4966232;28;20051;-83
2022/09/09 14:56:23;;;;;;;1.40;0.35;;;;;;;23.10;40.28;96327.25;4965253;28;20121;-82
2022/09/09 14:58:53;;;;;;;1.30;0.40;;;;;;;23.07;40.89;96333.13;4964990;28;20051;-81
2022/09/09 15:01:23;;;;;;;0.73;0.20;;;;;;;23.04;40.69;96326.47;4964671;28;20062;-83